sensor_id;sensor_type;location;lat;lon;timestamp;pressure;altitude;pressure_sealevel;temperature;humidity
12203;BME280;6164;42.178;24.622;2023-09-19T00:01:29;100069.34;;;16.98;100.00
12203;BME280;6164;42.178;24.622;2023-09-19T00:03:58;100066.63;;;16.91;100.00
12203;BME280;6164;42.178;24.622;2023-09-19T00:06:25;100057.56;;;16.86;100.00
12203;BME280;6164;42.178;24.622;2023-09-19T00:08:56;100057.78;;;16.84;100.00
12203;BME280;6164;42.178;24.622;2023-09-19T00:11:24;100055.06;;;16.78;100.00
12203;BME280;6164;42.178;24.622;2023-09-19T00:13:51;100058.91;;;16.69;100.00
12203;BME280;6164;42.178;24.622;2023-09-19T00:16:17;100065.22;;;16.61;100.00
12203;BME280;6164;42.178;24.622;2023-09-19T00:18:44;100066.81;;;16.56;100.00
12203;BME280;6164;42.178;24.622;2023-09-19T00:21:12;100061.88;;;16.53;100.00
12203;BME280;6164;42.178;24.622;2023-09-19T00:23:40;100066.78;;;16.49;100.00
12203;BME280;6164;42.178;24.622;2023-09-19T00:26:07;100064.50;;;16.46;100.00
12203;BME280;6164;42.178;24.622;2023-09-19T00:28:33;100059.72;;;16.42;100.00
12203;BME280;6164;42.178;24.622;2023-09-19T00:31:00;100065.22;;;16.34;100.00
12203;BME280;6164;42.178;24.622;2023-09-19T00:33:27;100056.97;;;16.29;100.00
12203;BME280;6164;42.178;24.622;2023-09-19T00:35:54;100056.69;;;16.17;100.00
12203;BME280;6164;42.178;24.622;2023-09-19T00:38:23;100061.94;;;16.11;100.00
12203;BME280;6164;42.178;24.622;2023-09-19T00:40:52;100060.94;;;15.91;100.00
12203;BME280;6164;42.178;24.622;2023-09-19T00:43:19;100062.00;;;15.54;100.00
12203;BME280;6164;42.178;24.622;2023-09-19T00:45:46;100059.00;;;15.42;100.00
12203;BME280;6164;42.178;24.622;2023-09-19T00:48:13;100071.03;;;15.38;100.00
12203;BME280;6164;42.178;24.622;2023-09-19T00:50:40;100065.72;;;15.24;100.00
12203;BME280;6164;42.178;24.622;2023-09-19T00:53:09;100067.31;;;15.18;100.00
12203;BME280;6164;42.178;24.622;2023-09-19T00:55:37;100066.13;;;15.06;100.00
12203;BME280;6164;42.178;24.622;2023-09-19T00:58:04;100066.59;;;14.95;100.00
12203;BME280;6164;42.178;24.622;2023-09-19T01:00:32;100062.19;;;15.02;100.00
12203;BME280;6164;42.178;24.622;2023-09-19T01:02:59;100059.16;;;15.05;100.00
12203;BME280;6164;42.178;24.622;2023-09-19T01:05:26;100059.25;;;15.12;100.00
12203;BME280;6164;42.178;24.622;2023-09-19T01:07:52;100061.56;;;15.00;100.00
12203;BME280;6164;42.178;24.622;2023-09-19T01:10:19;100057.31;;;15.06;100.00
12203;BME280;6164;42.178;24.622;2023-09-19T01:12:51;100051.66;;;15.09;100.00
12203;BME280;6164;42.178;24.622;2023-09-19T01:15:21;100056.31;;;15.07;100.00
12203;BME280;6164;42.178;24.622;2023-09-19T01:17:53;100055.28;;;15.08;100.00
12203;BME280;6164;42.178;24.622;2023-09-19T01:20:27;100055.84;;;15.18;100.00
12203;BME280;6164;42.178;24.622;2023-09-19T01:23:00;100057.56;;;15.25;100.00
12203;BME280;6164;42.178;24.622;2023-09-19T01:28:20;100050.47;;;15.32;100.00
12203;BME280;6164;42.178;24.622;2023-09-19T01:30:50;100054.22;;;15.38;100.00
12203;BME280;6164;42.178;24.622;2023-09-19T01:33:19;100051.22;;;15.41;100.00
12203;BME280;6164;42.178;24.622;2023-09-19T01:35:45;100060.88;;;15.42;100.00
12203;BME280;6164;42.178;24.622;2023-09-19T01:38:12;100063.53;;;15.42;100.00
12203;BME280;6164;42.178;24.622;2023-09-19T01:40:40;100056.25;;;15.36;100.00
12203;BME280;6164;42.178;24.622;2023-09-19T01:43:08;100052.75;;;15.35;100.00
12203;BME280;6164;42.178;24.622;2023-09-19T01:45:42;100050.94;;;15.36;100.00
12203;BME280;6164;42.178;24.622;2023-09-19T01:48:18;100048.91;;;15.38;100.00
12203;BME280;6164;42.178;24.622;2023-09-19T01:50:48;100043.97;;;15.35;100.00
12203;BME280;6164;42.178;24.622;2023-09-19T01:53:19;100041.94;;;15.37;100.00
12203;BME280;6164;42.178;24.622;2023-09-19T01:55:48;100043.59;;;15.38;100.00
12203;BME280;6164;42.178;24.622;2023-09-19T01:58:17;100048.06;;;15.37;100.00
12203;BME280;6164;42.178;24.622;2023-09-19T02:00:47;100049.28;;;15.35;100.00
12203;BME280;6164;42.178;24.622;2023-09-19T02:03:18;100042.50;;;15.32;100.00
12203;BME280;6164;42.178;24.622;2023-09-19T02:05:48;100046.56;;;15.28;100.00
12203;BME280;6164;42.178;24.622;2023-09-19T02:08:16;100043.09;;;15.13;100.00
12203;BME280;6164;42.178;24.622;2023-09-19T02:10:43;100048.34;;;15.07;100.00
12203;BME280;6164;42.178;24.622;2023-09-19T02:13:14;100048.78;;;15.10;100.00
12203;BME280;6164;42.178;24.622;2023-09-19T02:15:40;100038.69;;;15.06;100.00
12203;BME280;6164;42.178;24.622;2023-09-19T02:18:09;100038.63;;;14.99;100.00
12203;BME280;6164;42.178;24.622;2023-09-19T02:20:38;100041.84;;;14.95;100.00
12203;BME280;6164;42.178;24.622;2023-09-19T02:23:04;100034.44;;;14.90;100.00
12203;BME280;6164;42.178;24.622;2023-09-19T02:25:31;100040.31;;;14.86;100.00
12203;BME280;6164;42.178;24.622;2023-09-19T02:27:58;100047.00;;;14.82;100.00
12203;BME280;6164;42.178;24.622;2023-09-19T02:30:26;100042.03;;;14.79;100.00
12203;BME280;6164;42.178;24.622;2023-09-19T02:32:52;100047.09;;;14.74;100.00
12203;BME280;6164;42.178;24.622;2023-09-19T02:35:18;100047.00;;;14.67;100.00
12203;BME280;6164;42.178;24.622;2023-09-19T02:37:47;100046.53;;;14.64;100.00
12203;BME280;6164;42.178;24.622;2023-09-19T02:40:13;100037.91;;;14.62;100.00
12203;BME280;6164;42.178;24.622;2023-09-19T02:42:45;100042.44;;;14.61;100.00
12203;BME280;6164;42.178;24.622;2023-09-19T02:45:14;100041.03;;;14.65;100.00
12203;BME280;6164;42.178;24.622;2023-09-19T02:47:42;100038.00;;;14.68;100.00
12203;BME280;6164;42.178;24.622;2023-09-19T02:50:09;100047.47;;;14.71;100.00
12203;BME280;6164;42.178;24.622;2023-09-19T02:52:36;100046.06;;;14.75;100.00
12203;BME280;6164;42.178;24.622;2023-09-19T02:55:05;100044.25;;;14.75;100.00
12203;BME280;6164;42.178;24.622;2023-09-19T02:57:32;100047.53;;;14.77;100.00
12203;BME280;6164;42.178;24.622;2023-09-19T02:59:59;100043.22;;;14.76;100.00
12203;BME280;6164;42.178;24.622;2023-09-19T03:02:27;100043.41;;;14.75;100.00
12203;BME280;6164;42.178;24.622;2023-09-19T03:04:57;100049.56;;;14.75;100.00
12203;BME280;6164;42.178;24.622;2023-09-19T03:07:25;100045.25;;;14.74;100.00
12203;BME280;6164;42.178;24.622;2023-09-19T03:09:52;100042.59;;;14.74;100.00
12203;BME280;6164;42.178;24.622;2023-09-19T03:12:21;100041.97;;;14.72;100.00
12203;BME280;6164;42.178;24.622;2023-09-19T03:14:48;100044.16;;;14.69;100.00
12203;BME280;6164;42.178;24.622;2023-09-19T03:17:15;100043.31;;;14.68;100.00
12203;BME280;6164;42.178;24.622;2023-09-19T03:19:42;100036.09;;;14.62;100.00
12203;BME280;6164;42.178;24.622;2023-09-19T03:22:08;100036.56;;;14.51;100.00
12203;BME280;6164;42.178;24.622;2023-09-19T03:24:35;100042.66;;;14.37;100.00
12203;BME280;6164;42.178;24.622;2023-09-19T03:27:02;100049.47;;;14.17;100.00
12203;BME280;6164;42.178;24.622;2023-09-19T03:29:30;100045.13;;;14.01;100.00
12203;BME280;6164;42.178;24.622;2023-09-19T03:31:57;100047.31;;;13.98;100.00
12203;BME280;6164;42.178;24.622;2023-09-19T03:34:24;100038.06;;;13.94;100.00
12203;BME280;6164;42.178;24.622;2023-09-19T03:36:50;100040.53;;;13.95;100.00
12203;BME280;6164;42.178;24.622;2023-09-19T03:39:17;100045.84;;;13.95;100.00
12203;BME280;6164;42.178;24.622;2023-09-19T03:41:43;100045.03;;;13.95;100.00
12203;BME280;6164;42.178;24.622;2023-09-19T03:44:10;100050.88;;;13.90;100.00
12203;BME280;6164;42.178;24.622;2023-09-19T03:46:40;100047.47;;;13.82;100.00
12203;BME280;6164;42.178;24.622;2023-09-19T03:49:06;100049.34;;;13.73;100.00
12203;BME280;6164;42.178;24.622;2023-09-19T03:51:33;100052.25;;;13.64;100.00
12203;BME280;6164;42.178;24.622;2023-09-19T03:54:00;100051.53;;;13.70;100.00
12203;BME280;6164;42.178;24.622;2023-09-19T03:56:26;100053.94;;;13.79;100.00
12203;BME280;6164;42.178;24.622;2023-09-19T03:58:53;100046.25;;;13.84;100.00
12203;BME280;6164;42.178;24.622;2023-09-19T04:01:20;100043.72;;;13.91;100.00
12203;BME280;6164;42.178;24.622;2023-09-19T04:03:48;100048.66;;;13.94;100.00
12203;BME280;6164;42.178;24.622;2023-09-19T04:06:17;100047.13;;;13.99;100.00
12203;BME280;6164;42.178;24.622;2023-09-19T04:08:45;100043.94;;;14.04;100.00
12203;BME280;6164;42.178;24.622;2023-09-19T04:11:12;100047.91;;;14.08;100.00
12203;BME280;6164;42.178;24.622;2023-09-19T04:13:39;100047.72;;;14.09;100.00
12203;BME280;6164;42.178;24.622;2023-09-19T04:16:05;100049.06;;;14.05;100.00
12203;BME280;6164;42.178;24.622;2023-09-19T04:18:32;100049.53;;;14.09;100.00
12203;BME280;6164;42.178;24.622;2023-09-19T04:21:03;100053.69;;;14.11;100.00
12203;BME280;6164;42.178;24.622;2023-09-19T04:23:30;100045.53;;;14.13;100.00
12203;BME280;6164;42.178;24.622;2023-09-19T04:25:57;100055.13;;;14.14;100.00
12203;BME280;6164;42.178;24.622;2023-09-19T04:28:24;100052.91;;;14.03;100.00
12203;BME280;6164;42.178;24.622;2023-09-19T04:30:50;100059.41;;;14.00;100.00
12203;BME280;6164;42.178;24.622;2023-09-19T04:33:17;100055.41;;;14.04;100.00
12203;BME280;6164;42.178;24.622;2023-09-19T04:35:43;100061.94;;;13.94;100.00
12203;BME280;6164;42.178;24.622;2023-09-19T04:38:11;100063.72;;;14.01;100.00
12203;BME280;6164;42.178;24.622;2023-09-19T04:40:38;100064.25;;;13.97;100.00
12203;BME280;6164;42.178;24.622;2023-09-19T04:43:05;100064.78;;;13.92;100.00
12203;BME280;6164;42.178;24.622;2023-09-19T04:45:32;100063.56;;;13.80;100.00
12203;BME280;6164;42.178;24.622;2023-09-19T04:47:59;100059.41;;;13.78;100.00
12203;BME280;6164;42.178;24.622;2023-09-19T04:50:26;100054.28;;;13.76;100.00
12203;BME280;6164;42.178;24.622;2023-09-19T04:52:53;100059.97;;;13.73;100.00
12203;BME280;6164;42.178;24.622;2023-09-19T04:55:21;100067.03;;;13.81;100.00
12203;BME280;6164;42.178;24.622;2023-09-19T04:57:47;100062.56;;;13.81;100.00
12203;BME280;6164;42.178;24.622;2023-09-19T05:00:14;100061.09;;;13.79;100.00
12203;BME280;6164;42.178;24.622;2023-09-19T05:02:42;100057.19;;;13.89;100.00
12203;BME280;6164;42.178;24.622;2023-09-19T05:05:10;100060.66;;;13.90;100.00
12203;BME280;6164;42.178;24.622;2023-09-19T05:07:37;100062.66;;;13.88;100.00
12203;BME280;6164;42.178;24.622;2023-09-19T05:10:05;100064.97;;;13.91;100.00
12203;BME280;6164;42.178;24.622;2023-09-19T05:12:34;100058.47;;;13.93;100.00
12203;BME280;6164;42.178;24.622;2023-09-19T05:15:01;100061.34;;;14.06;100.00
12203;BME280;6164;42.178;24.622;2023-09-19T05:17:28;100071.06;;;14.14;100.00
12203;BME280;6164;42.178;24.622;2023-09-19T05:19:54;100070.41;;;14.12;100.00
12203;BME280;6164;42.178;24.622;2023-09-19T05:22:21;100065.00;;;14.28;100.00
12203;BME280;6164;42.178;24.622;2023-09-19T05:24:49;100070.06;;;14.37;100.00
12203;BME280;6164;42.178;24.622;2023-09-19T05:27:16;100079.16;;;14.43;100.00
12203;BME280;6164;42.178;24.622;2023-09-19T05:29:44;100081.44;;;14.61;100.00
12203;BME280;6164;42.178;24.622;2023-09-19T05:32:16;100080.34;;;14.70;100.00
12203;BME280;6164;42.178;24.622;2023-09-19T05:34:43;100085.59;;;14.78;100.00
12203;BME280;6164;42.178;24.622;2023-09-19T05:37:09;100084.75;;;14.77;100.00
12203;BME280;6164;42.178;24.622;2023-09-19T05:39:36;100081.63;;;14.88;100.00
12203;BME280;6164;42.178;24.622;2023-09-19T05:42:03;100078.88;;;14.96;100.00
12203;BME280;6164;42.178;24.622;2023-09-19T05:44:29;100082.53;;;15.10;100.00
12203;BME280;6164;42.178;24.622;2023-09-19T05:46:58;100076.81;;;15.27;100.00
12203;BME280;6164;42.178;24.622;2023-09-19T05:49:25;100072.56;;;15.47;100.00
12203;BME280;6164;42.178;24.622;2023-09-19T05:51:52;100069.16;;;15.53;100.00
12203;BME280;6164;42.178;24.622;2023-09-19T05:54:20;100067.28;;;15.68;100.00
12203;BME280;6164;42.178;24.622;2023-09-19T05:56:47;100055.31;;;15.79;100.00
12203;BME280;6164;42.178;24.622;2023-09-19T05:59:14;100065.25;;;15.92;100.00
12203;BME280;6164;42.178;24.622;2023-09-19T06:01:41;100057.13;;;16.00;100.00
12203;BME280;6164;42.178;24.622;2023-09-19T06:04:09;100058.00;;;16.07;100.00
12203;BME280;6164;42.178;24.622;2023-09-19T06:06:35;100056.03;;;16.15;100.00
12203;BME280;6164;42.178;24.622;2023-09-19T06:09:04;100053.91;;;16.32;100.00
12203;BME280;6164;42.178;24.622;2023-09-19T06:11:31;100048.19;;;16.35;100.00
12203;BME280;6164;42.178;24.622;2023-09-19T06:13:59;100041.91;;;16.42;100.00
12203;BME280;6164;42.178;24.622;2023-09-19T06:16:27;100044.50;;;16.57;100.00
12203;BME280;6164;42.178;24.622;2023-09-19T06:18:54;100036.13;;;16.66;100.00
12203;BME280;6164;42.178;24.622;2023-09-19T06:21:22;100039.91;;;16.78;100.00
12203;BME280;6164;42.178;24.622;2023-09-19T06:23:49;100037.53;;;16.96;100.00
12203;BME280;6164;42.178;24.622;2023-09-19T06:26:15;100034.28;;;17.07;100.00
12203;BME280;6164;42.178;24.622;2023-09-19T06:28:42;100032.91;;;17.18;100.00
12203;BME280;6164;42.178;24.622;2023-09-19T06:31:09;100032.97;;;17.38;100.00
12203;BME280;6164;42.178;24.622;2023-09-19T06:33:35;100026.22;;;17.48;100.00
12203;BME280;6164;42.178;24.622;2023-09-19T06:36:03;100021.94;;;17.60;100.00
12203;BME280;6164;42.178;24.622;2023-09-19T06:38:31;100022.59;;;17.69;100.00
12203;BME280;6164;42.178;24.622;2023-09-19T06:40:59;100020.91;;;17.68;100.00
12203;BME280;6164;42.178;24.622;2023-09-19T06:43:29;100029.75;;;17.68;100.00
12203;BME280;6164;42.178;24.622;2023-09-19T06:45:56;100020.53;;;17.64;100.00
12203;BME280;6164;42.178;24.622;2023-09-19T06:48:22;100016.22;;;17.76;100.00
12203;BME280;6164;42.178;24.622;2023-09-19T06:50:50;100014.56;;;17.69;100.00
12203;BME280;6164;42.178;24.622;2023-09-19T06:53:16;100015.41;;;17.82;100.00
12203;BME280;6164;42.178;24.622;2023-09-19T06:55:45;100012.13;;;18.00;100.00
12203;BME280;6164;42.178;24.622;2023-09-19T06:58:12;100003.47;;;18.04;100.00
12203;BME280;6164;42.178;24.622;2023-09-19T07:00:41;100010.69;;;18.17;100.00
12203;BME280;6164;42.178;24.622;2023-09-19T07:03:09;100015.19;;;18.23;100.00
12203;BME280;6164;42.178;24.622;2023-09-19T07:05:37;100001.00;;;18.16;100.00
12203;BME280;6164;42.178;24.622;2023-09-19T07:08:04;100004.06;;;18.32;100.00
12203;BME280;6164;42.178;24.622;2023-09-19T07:10:31;100006.13;;;18.50;100.00
12203;BME280;6164;42.178;24.622;2023-09-19T07:13:00;99995.59;;;18.62;100.00
12203;BME280;6164;42.178;24.622;2023-09-19T07:15:27;99994.38;;;18.64;100.00
12203;BME280;6164;42.178;24.622;2023-09-19T07:17:56;99994.53;;;18.76;100.00
12203;BME280;6164;42.178;24.622;2023-09-19T07:20:23;99988.91;;;18.97;100.00
12203;BME280;6164;42.178;24.622;2023-09-19T07:22:51;99986.78;;;19.12;100.00
12203;BME280;6164;42.178;24.622;2023-09-19T07:25:20;99981.38;;;19.18;100.00
12203;BME280;6164;42.178;24.622;2023-09-19T07:27:46;99993.06;;;19.37;100.00
12203;BME280;6164;42.178;24.622;2023-09-19T07:30:14;99995.22;;;19.53;100.00
12203;BME280;6164;42.178;24.622;2023-09-19T07:32:41;99990.75;;;19.72;100.00
12203;BME280;6164;42.178;24.622;2023-09-19T07:35:08;99979.56;;;19.81;100.00
12203;BME280;6164;42.178;24.622;2023-09-19T07:37:34;99981.19;;;19.82;100.00
12203;BME280;6164;42.178;24.622;2023-09-19T07:40:01;99973.63;;;19.97;100.00
12203;BME280;6164;42.178;24.622;2023-09-19T07:42:28;99968.38;;;20.09;100.00
12203;BME280;6164;42.178;24.622;2023-09-19T07:44:54;99968.13;;;20.17;100.00
12203;BME280;6164;42.178;24.622;2023-09-19T07:47:22;99967.69;;;20.20;100.00
12203;BME280;6164;42.178;24.622;2023-09-19T07:49:49;99957.56;;;20.40;100.00
12203;BME280;6164;42.178;24.622;2023-09-19T07:52:15;99951.69;;;20.67;100.00
12203;BME280;6164;42.178;24.622;2023-09-19T07:54:42;99958.84;;;20.91;100.00
12203;BME280;6164;42.178;24.622;2023-09-19T07:57:09;99958.00;;;21.09;100.00
12203;BME280;6164;42.178;24.622;2023-09-19T07:59:36;99951.28;;;21.18;100.00
12203;BME280;6164;42.178;24.622;2023-09-19T08:02:03;99945.72;;;21.31;100.00
12203;BME280;6164;42.178;24.622;2023-09-19T08:04:31;99949.03;;;21.45;100.00
12203;BME280;6164;42.178;24.622;2023-09-19T08:06:58;99946.16;;;21.58;99.62
12203;BME280;6164;42.178;24.622;2023-09-19T08:09:25;99938.91;;;21.70;98.15
12203;BME280;6164;42.178;24.622;2023-09-19T08:11:52;99939.19;;;21.91;100.00
12203;BME280;6164;42.178;24.622;2023-09-19T08:14:19;99940.63;;;22.17;99.90
12203;BME280;6164;42.178;24.622;2023-09-19T08:16:45;99940.84;;;22.39;95.40
12203;BME280;6164;42.178;24.622;2023-09-19T08:19:12;99936.94;;;22.58;92.62
12203;BME280;6164;42.178;24.622;2023-09-19T08:21:41;99932.47;;;22.75;90.34
12203;BME280;6164;42.178;24.622;2023-09-19T08:24:11;99929.75;;;22.86;85.27
12203;BME280;6164;42.178;24.622;2023-09-19T08:26:37;99926.97;;;23.09;87.67
12203;BME280;6164;42.178;24.622;2023-09-19T08:29:03;99929.59;;;23.21;82.95
12203;BME280;6164;42.178;24.622;2023-09-19T08:31:32;99921.41;;;23.27;80.98
12203;BME280;6164;42.178;24.622;2023-09-19T08:33:59;99925.75;;;23.45;81.12
12203;BME280;6164;42.178;24.622;2023-09-19T08:36:25;99925.00;;;23.50;76.99
12203;BME280;6164;42.178;24.622;2023-09-19T08:38:53;99918.56;;;23.51;76.18
12203;BME280;6164;42.178;24.622;2023-09-19T08:41:20;99910.94;;;23.48;76.95
12203;BME280;6164;42.178;24.622;2023-09-19T08:43:46;99913.06;;;23.29;76.19
12203;BME280;6164;42.178;24.622;2023-09-19T08:46:15;99913.75;;;23.24;75.65
12203;BME280;6164;42.178;24.622;2023-09-19T08:48:45;99913.84;;;23.13;74.22
12203;BME280;6164;42.178;24.622;2023-09-19T08:51:18;99903.69;;;23.20;76.65
12203;BME280;6164;42.178;24.622;2023-09-19T08:53:47;99912.84;;;23.19;75.89
12203;BME280;6164;42.178;24.622;2023-09-19T08:56:18;99904.44;;;23.15;76.71
12203;BME280;6164;42.178;24.622;2023-09-19T08:58:46;99908.50;;;23.18;76.85
12203;BME280;6164;42.178;24.622;2023-09-19T09:01:14;99903.34;;;23.28;76.09
12203;BME280;6164;42.178;24.622;2023-09-19T09:03:41;99897.63;;;23.41;75.31
12203;BME280;6164;42.178;24.622;2023-09-19T09:06:11;99895.78;;;23.58;76.69
12203;BME280;6164;42.178;24.622;2023-09-19T09:08:40;99893.91;;;23.59;74.50
12203;BME280;6164;42.178;24.622;2023-09-19T09:11:07;99901.00;;;23.65;72.51
12203;BME280;6164;42.178;24.622;2023-09-19T09:13:35;99893.41;;;23.78;72.46
12203;BME280;6164;42.178;24.622;2023-09-19T09:16:02;99887.50;;;23.81;72.64
12203;BME280;6164;42.178;24.622;2023-09-19T09:18:29;99894.22;;;23.95;71.75
12203;BME280;6164;42.178;24.622;2023-09-19T09:20:56;99884.38;;;23.89;69.61
12203;BME280;6164;42.178;24.622;2023-09-19T09:23:22;99884.13;;;23.91;70.35
12203;BME280;6164;42.178;24.622;2023-09-19T09:25:51;99877.06;;;24.01;69.37
12203;BME280;6164;42.178;24.622;2023-09-19T09:28:22;99882.13;;;23.81;69.62
12203;BME280;6164;42.178;24.622;2023-09-19T09:30:50;99873.19;;;23.97;70.94
12203;BME280;6164;42.178;24.622;2023-09-19T09:33:17;99868.28;;;24.11;70.37
12203;BME280;6164;42.178;24.622;2023-09-19T09:35:47;99859.97;;;24.34;72.84
12203;BME280;6164;42.178;24.622;2023-09-19T09:38:17;99863.88;;;24.43;69.45
12203;BME280;6164;42.178;24.622;2023-09-19T09:40:47;99859.06;;;24.50;69.49
12203;BME280;6164;42.178;24.622;2023-09-19T09:43:30;99851.28;;;24.53;66.11
12203;BME280;6164;42.178;24.622;2023-09-19T09:49:01;99856.94;;;24.74;65.28
12203;BME280;6164;42.178;24.622;2023-09-19T09:51:58;99851.03;;;24.77;64.07
12203;BME280;6164;42.178;24.622;2023-09-19T09:54:26;99847.66;;;24.91;67.81
12203;BME280;6164;42.178;24.622;2023-09-19T09:56:58;99851.66;;;25.10;65.02
12203;BME280;6164;42.178;24.622;2023-09-19T10:02:21;99849.25;;;25.14;63.25
12203;BME280;6164;42.178;24.622;2023-09-19T10:04:53;99851.59;;;25.05;62.75
12203;BME280;6164;42.178;24.622;2023-09-19T10:07:24;99835.00;;;24.92;63.30
12203;BME280;6164;42.178;24.622;2023-09-19T10:09:52;99833.53;;;25.11;65.09
12203;BME280;6164;42.178;24.622;2023-09-19T10:12:24;99842.00;;;25.19;63.11
12203;BME280;6164;42.178;24.622;2023-09-19T10:14:52;99834.19;;;25.23;62.41
12203;BME280;6164;42.178;24.622;2023-09-19T10:17:23;99838.25;;;25.20;61.32
12203;BME280;6164;42.178;24.622;2023-09-19T10:19:52;99835.13;;;25.07;62.20
12203;BME280;6164;42.178;24.622;2023-09-19T10:22:23;99826.13;;;25.28;62.37
12203;BME280;6164;42.178;24.622;2023-09-19T10:24:51;99826.88;;;25.50;61.29
12203;BME280;6164;42.178;24.622;2023-09-19T10:27:19;99824.84;;;25.72;60.76
12203;BME280;6164;42.178;24.622;2023-09-19T10:29:45;99817.16;;;25.95;60.57
12203;BME280;6164;42.178;24.622;2023-09-19T10:32:16;99803.50;;;26.17;59.99
12203;BME280;6164;42.178;24.622;2023-09-19T10:34:44;99807.88;;;26.33;58.62
12203;BME280;6164;42.178;24.622;2023-09-19T10:37:11;99810.63;;;26.43;57.96
12203;BME280;6164;42.178;24.622;2023-09-19T10:39:41;99813.19;;;26.08;55.90
12203;BME280;6164;42.178;24.622;2023-09-19T10:42:13;99805.66;;;26.20;56.48
12203;BME280;6164;42.178;24.622;2023-09-19T10:44:42;99794.09;;;26.35;57.49
12203;BME280;6164;42.178;24.622;2023-09-19T10:47:11;99811.97;;;26.46;55.50
12203;BME280;6164;42.178;24.622;2023-09-19T10:49:42;99789.56;;;26.55;57.44
12203;BME280;6164;42.178;24.622;2023-09-19T10:52:11;99786.66;;;26.77;57.21
12203;BME280;6164;42.178;24.622;2023-09-19T10:54:45;99799.66;;;26.80;54.15
12203;BME280;6164;42.178;24.622;2023-09-19T10:57:18;99795.03;;;26.85;53.98
12203;BME280;6164;42.178;24.622;2023-09-19T11:00:00;99792.63;;;26.94;54.21
12203;BME280;6164;42.178;24.622;2023-09-19T11:05:30;99791.81;;;27.23;52.80
12203;BME280;6164;42.178;24.622;2023-09-19T11:07:56;99787.50;;;27.33;51.39
12203;BME280;6164;42.178;24.622;2023-09-19T11:13:24;99793.97;;;27.47;50.49
12203;BME280;6164;42.178;24.622;2023-09-19T11:18:51;99789.94;;;27.44;50.01
12203;BME280;6164;42.178;24.622;2023-09-19T11:26:50;99770.69;;;27.46;49.67
12203;BME280;6164;42.178;24.622;2023-09-19T11:29:26;99771.22;;;27.43;50.16
12203;BME280;6164;42.178;24.622;2023-09-19T11:31:54;99773.66;;;27.49;49.45
12203;BME280;6164;42.178;24.622;2023-09-19T11:37:01;99755.25;;;27.36;49.70
12203;BME280;6164;42.178;24.622;2023-09-19T11:39:29;99736.47;;;27.50;50.84
12203;BME280;6164;42.178;24.622;2023-09-19T11:41:56;99733.75;;;27.60;50.39
12203;BME280;6164;42.178;24.622;2023-09-19T11:44:34;99735.38;;;27.71;50.17
12203;BME280;6164;42.178;24.622;2023-09-19T11:47:03;99736.69;;;27.73;49.40
12203;BME280;6164;42.178;24.622;2023-09-19T11:49:31;99743.50;;;27.71;49.64
12203;BME280;6164;42.178;24.622;2023-09-19T11:51:58;99737.50;;;27.84;49.77
12203;BME280;6164;42.178;24.622;2023-09-19T11:54:26;99744.25;;;27.86;48.22
12203;BME280;6164;42.178;24.622;2023-09-19T11:56:56;99736.66;;;27.83;48.10
12203;BME280;6164;42.178;24.622;2023-09-19T11:59:24;99738.84;;;27.81;47.56
12203;BME280;6164;42.178;24.622;2023-09-19T12:01:54;99738.56;;;27.78;47.94
12203;BME280;6164;42.178;24.622;2023-09-19T12:04:32;99741.84;;;27.75;47.55
12203;BME280;6164;42.178;24.622;2023-09-19T12:07:02;99729.91;;;27.81;48.12
12203;BME280;6164;42.178;24.622;2023-09-19T12:09:29;99723.09;;;27.83;48.05
12203;BME280;6164;42.178;24.622;2023-09-19T12:11:56;99735.06;;;27.82;47.57
12203;BME280;6164;42.178;24.622;2023-09-19T12:14:23;99741.00;;;27.84;46.14
12203;BME280;6164;42.178;24.622;2023-09-19T12:16:51;99748.38;;;27.69;45.87
12203;BME280;6164;42.178;24.622;2023-09-19T12:19:22;99746.53;;;27.49;45.66
12203;BME280;6164;42.178;24.622;2023-09-19T12:21:58;99734.88;;;27.49;46.08
12203;BME280;6164;42.178;24.622;2023-09-19T12:24:29;99720.72;;;27.67;47.08
12203;BME280;6164;42.178;24.622;2023-09-19T12:26:59;99716.66;;;27.69;47.25
12203;BME280;6164;42.178;24.622;2023-09-19T12:29:29;99706.03;;;27.73;48.00
12203;BME280;6164;42.178;24.622;2023-09-19T12:31:56;99707.63;;;27.89;47.72
12203;BME280;6164;42.178;24.622;2023-09-19T12:34:25;99718.47;;;27.99;46.21
12203;BME280;6164;42.178;24.622;2023-09-19T12:37:05;99711.88;;;28.10;47.16
12203;BME280;6164;42.178;24.622;2023-09-19T12:39:37;99713.72;;;28.19;46.06
12203;BME280;6164;42.178;24.622;2023-09-19T12:42:03;99698.84;;;28.12;47.29
12203;BME280;6164;42.178;24.622;2023-09-19T12:44:34;99685.34;;;28.02;47.80
12203;BME280;6164;42.178;24.622;2023-09-19T12:47:02;99709.81;;;27.92;45.56
12203;BME280;6164;42.178;24.622;2023-09-19T12:49:35;99695.16;;;27.83;46.56
12203;BME280;6164;42.178;24.622;2023-09-19T12:52:02;99652.59;;;27.78;49.48
12203;BME280;6164;42.178;24.622;2023-09-19T12:54:37;99664.00;;;27.75;47.81
12203;BME280;6164;42.178;24.622;2023-09-19T12:57:04;99673.19;;;27.74;46.80
12203;BME280;6164;42.178;24.622;2023-09-19T12:59:30;99694.97;;;27.69;46.09
12203;BME280;6164;42.178;24.622;2023-09-19T13:02:03;99658.25;;;27.87;48.32
12203;BME280;6164;42.178;24.622;2023-09-19T13:04:31;99661.66;;;28.07;49.00
12203;BME280;6164;42.178;24.622;2023-09-19T13:07:01;99677.53;;;28.34;47.12
12203;BME280;6164;42.178;24.622;2023-09-19T13:09:27;99675.19;;;28.61;46.02
12203;BME280;6164;42.178;24.622;2023-09-19T13:11:59;99717.03;;;28.60;44.08
12203;BME280;6164;42.178;24.622;2023-09-19T13:14:27;99717.59;;;28.57;43.99
12203;BME280;6164;42.178;24.622;2023-09-19T13:16:57;99707.06;;;28.84;44.60
12203;BME280;6164;42.178;24.622;2023-09-19T13:19:39;99688.78;;;28.90;45.39